Time;durP1;ratioP1;P1;durP2;ratioP2;P2;SDS_P1;SDS_P2;PMS_P1;PMS_P2;Temp;Humidity;BMP_temperature;BMP_pressure;BME280_temperature;BME280_humidity;BME280_pressure;Samples;Min_cycle;Max_cycle;Signal;HPM_P1;HPM_P2
2023/06/20 00:01:04;;;;;;;0.80;0.80;;;;;20.40;95733.00;;;;5015132;28;20243;-55
2023/06/20 00:03:31;;;;;;;1.05;1.05;;;;;20.50;95740.00;;;;5015018;28;20237;-55
2023/06/20 00:05:59;;;;;;;1.05;1.00;;;;;20.60;95749.00;;;;5015053;28;20260;-55
2023/06/20 00:08:27;;;;;;;1.75;1.65;;;;;20.70;95760.00;;;;5015232;28;20202;-55
2023/06/20 00:10:54;;;;;;;1.33;1.30;;;;;20.70;95772.00;;;;5014956;28;20201;-55
2023/06/20 00:13:22;;;;;;;0.73;0.73;;;;;21.00;95787.00;;;;5015024;28;20213;-55
2023/06/20 00:15:49;;;;;;;1.10;1.10;;;;;20.90;95837.00;;;;5014975;28;20201;-55
2023/06/20 00:18:17;;;;;;;0.98;0.98;;;;;20.40;95878.00;;;;5015024;28;20329;-56
2023/06/20 00:20:46;;;;;;;1.98;1.88;;;;;20.10;95899.00;;;;5014827;28;20220;-54
2023/06/20 00:23:16;;;;;;;1.23;1.23;;;;;19.90;95906.00;;;;5014618;28;20221;-55
2023/06/20 00:25:43;;;;;;;1.13;1.07;;;;;19.80;95910.00;;;;5014695;28;20185;-55
2023/06/20 00:28:13;;;;;;;1.17;1.13;;;;;19.90;95910.00;;;;5014583;28;20197;-56
2023/06/20 00:30:41;;;;;;;1.00;1.00;;;;;20.10;95919.00;;;;5014838;28;20244;-55
2023/06/20 00:33:08;;;;;;;0.83;0.83;;;;;19.70;95928.00;;;;5014541;28;20307;-55
2023/06/20 00:35:36;;;;;;;0.80;0.80;;;;;19.70;95928.00;;;;5014796;28;20287;-55
2023/06/20 00:38:03;;;;;;;0.80;0.80;;;;;19.50;95919.00;;;;5014393;28;20221;-54
2023/06/20 00:40:32;;;;;;;1.90;1.80;;;;;19.70;95930.00;;;;5014384;28;20198;-56
2023/06/20 00:43:00;;;;;;;0.70;0.70;;;;;19.60;95927.00;;;;5014139;28;20723;-55
2023/06/20 00:45:30;;;;;;;0.90;0.90;;;;;19.50;95943.00;;;;5014607;28;20193;-57
2023/06/20 00:47:59;;;;;;;1.30;1.30;;;;;19.30;95928.00;;;;5014298;28;20186;-54
2023/06/20 00:50:27;;;;;;;1.67;1.60;;;;;19.30;95925.00;;;;5014179;28;20193;-55
2023/06/20 00:53:00;;;;;;;1.23;1.23;;;;;19.40;95920.00;;;;5014044;28;20263;-54
2023/06/20 00:55:28;;;;;;;0.93;0.93;;;;;19.40;95920.00;;;;5014094;28;20293;-54
2023/06/20 00:57:58;;;;;;;1.57;1.50;;;;;19.30;95919.00;;;;5014004;28;20248;-55
2023/06/20 01:00:27;;;;;;;1.20;1.20;;;;;19.30;95917.00;;;;5014239;28;20653;-55
2023/06/20 01:02:57;;;;;;;1.30;1.27;;;;;19.20;95926.00;;;;5014115;28;20221;-54
2023/06/20 01:05:27;;;;;;;1.67;1.57;;;;;18.90;95921.00;;;;5013942;28;20200;-55
2023/06/20 01:08:03;;;;;;;1.70;1.60;;;;;19.00;95912.00;;;;5014242;28;20185;-55
2023/06/20 01:10:44;;;;;;;1.23;1.23;;;;;19.00;95916.00;;;;5014179;28;20185;-54
2023/06/20 01:13:24;;;;;;;1.43;1.33;;;;;18.90;95903.00;;;;5013856;28;20221;-54
2023/06/20 01:15:59;;;;;;;0.97;0.97;;;;;19.00;95896.00;;;;5013787;28;20188;-54
2023/06/20 01:18:43;;;;;;;1.43;1.33;;;;;19.00;95881.00;;;;5013768;28;20197;-54
2023/06/20 01:21:16;;;;;;;1.40;1.40;;;;;19.10;95867.00;;;;5013686;28;20178;-55
2023/06/20 01:23:50;;;;;;;0.80;0.80;;;;;19.00;95860.00;;;;5013673;28;20217;-54
2023/06/20 01:26:24;;;;;;;1.00;1.00;;;;;19.10;95846.00;;;;5013939;28;20185;-54
2023/06/20 01:28:59;;;;;;;1.63;1.47;;;;;19.20;95856.00;;;;5013872;28;20204;-54
2023/06/20 01:31:31;;;;;;;1.00;1.00;;;;;19.20;95866.00;;;;5013739;28;20231;-54
2023/06/20 01:34:03;;;;;;;1.10;1.10;;;;;19.20;95860.00;;;;5013494;28;20221;-55
2023/06/20 01:36:36;;;;;;;0.60;0.60;;;;;19.10;95857.00;;;;5013742;28;20182;-54
2023/06/20 01:39:10;;;;;;;0.97;0.97;;;;;19.00;95848.00;;;;5013506;28;20185;-55
2023/06/20 01:41:40;;;;;;;1.00;0.93;;;;;19.10;95842.00;;;;5013242;28;20193;-55
2023/06/20 01:44:11;;;;;;;1.27;1.27;;;;;18.90;95846.00;;;;5042459;22;20315;-60
2023/06/20 01:46:39;;;;;;;1.30;1.20;;;;;18.90;95840.00;;;;5031878;28;20181;-61
2023/06/20 01:49:08;;;;;;;1.53;1.43;;;;;18.90;95840.00;;;;5033357;28;20624;-61
2023/06/20 01:51:36;;;;;;;0.77;0.77;;;;;18.90;95827.00;;;;5033077;28;20201;-61
2023/06/20 01:54:05;;;;;;;1.10;1.10;;;;;18.90;95826.00;;;;5032999;28;20213;-61
2023/06/20 01:56:33;;;;;;;0.80;0.80;;;;;18.90;95821.00;;;;5033378;28;20670;-62
2023/06/20 01:59:03;;;;;;;1.40;1.40;;;;;18.80;95809.00;;;;5033126;28;20565;-62
2023/06/20 02:01:32;;;;;;;0.77;0.77;;;;;19.00;95803.00;;;;5032882;28;20193;-62
2023/06/20 02:04:01;;;;;;;0.60;0.60;;;;;18.80;95802.00;;;;5032874;28;20223;-62
2023/06/20 02:06:30;;;;;;;1.10;1.10;;;;;18.80;95809.00;;;;5033331;28;20200;-61
2023/06/20 02:09:00;;;;;;;1.00;1.00;;;;;18.80;95820.00;;;;5032902;28;20192;-61
2023/06/20 02:11:29;;;;;;;0.87;0.87;;;;;18.80;95810.00;;;;5032851;28;20196;-61
2023/06/20 02:13:58;;;;;;;1.10;1.10;;;;;18.70;95799.00;;;;5034335;28;20809;-61
2023/06/20 02:16:27;;;;;;;1.00;1.00;;;;;18.60;95797.00;;;;5037040;28;20208;-61
2023/06/20 02:18:54;;;;;;;0.93;0.93;;;;;18.50;95811.00;;;;5036793;28;20221;-61
2023/06/20 02:21:24;;;;;;;1.23;1.20;;;;;18.70;95808.00;;;;5037234;28;20552;-62
2023/06/20 02:23:54;;;;;;;0.80;0.80;;;;;18.60;95802.00;;;;5037096;28;20208;-62
2023/06/20 02:26:27;;;;;;;6.70;1.43;;;;;18.40;95796.00;;;;5036659;28;20675;-61
2023/06/20 02:28:58;;;;;;;0.90;0.90;;;;;18.40;95801.00;;;;5036983;28;20176;-61
2023/06/20 02:31:29;;;;;;;1.03;1.03;;;;;18.40;95805.00;;;;5036813;28;20233;-61
2023/06/20 02:33:59;;;;;;;1.07;1.07;;;;;18.40;95797.00;;;;5036536;28;20227;-61
2023/06/20 02:36:29;;;;;;;1.00;1.00;;;;;18.30;95796.00;;;;5037334;28;20173;-61
2023/06/20 02:38:58;;;;;;;0.60;0.60;;;;;18.40;95803.00;;;;5036387;28;20266;-61
2023/06/20 02:41:25;;;;;;;0.90;0.90;;;;;18.50;95803.00;;;;5036391;28;20247;-62
2023/06/20 02:43:53;;;;;;;0.83;0.83;;;;;18.20;95812.00;;;;5036211;28;20220;-62
2023/06/20 02:46:30;;;;;;;1.73;1.63;;;;;18.00;95821.00;;;;5036295;28;20254;-61
2023/06/20 02:49:06;;;;;;;1.00;1.00;;;;;18.00;95826.00;;;;5036375;28;20176;-61
2023/06/20 02:51:39;;;;;;;0.70;0.70;;;;;17.90;95817.00;;;;5036230;28;20189;-61
2023/06/20 02:54:15;;;;;;;0.60;0.60;;;;;17.90;95822.00;;;;5036191;28;20220;-61
2023/06/20 02:56:46;;;;;;;1.30;1.30;;;;;17.80;95815.00;;;;5036460;28;20188;-61
2023/06/20 02:59:14;;;;;;;8.33;1.43;;;;;18.00;95818.00;;;;5036018;28;20205;-61
2023/06/20 03:01:47;;;;;;;1.07;1.07;;;;;18.20;95812.00;;;;5036207;28;20220;-61
2023/06/20 03:04:16;;;;;;;0.90;0.70;;;;;18.20;95812.00;;;;5036263;28;20352;-61
2023/06/20 03:06:46;;;;;;;1.47;1.47;;;;;18.20;95805.00;;;;5035918;28;20193;-60
2023/06/20 03:09:15;;;;;;;1.00;1.00;;;;;18.20;95805.00;;;;5035833;28;20243;-61
2023/06/20 03:11:42;;;;;;;2.57;1.70;;;;;18.20;95797.00;;;;5036211;28;20193;-59
2023/06/20 03:14:13;;;;;;;1.17;1.10;;;;;18.20;95799.00;;;;5036045;28;20327;-61
2023/06/20 03:16:42;;;;;;;0.50;0.50;;;;;18.10;95800.00;;;;5035761;28;20193;-60
2023/06/20 03:19:10;;;;;;;0.80;0.80;;;;;18.20;95793.00;;;;5035645;28;20275;-61
2023/06/20 03:21:38;;;;;;;1.07;1.07;;;;;18.20;95783.00;;;;5035659;28;20189;-60
2023/06/20 03:24:06;;;;;;;0.97;0.97;;;;;18.10;95779.00;;;;5035297;28;20217;-60
2023/06/20 03:26:34;;;;;;;1.57;1.47;;;;;18.00;95778.00;;;;5035825;28;20219;-61
2023/06/20 03:29:01;;;;;;;1.20;1.17;;;;;18.10;95777.00;;;;5035438;28;20224;-61
2023/06/20 03:31:28;;;;;;;1.00;1.00;;;;;18.10;95778.00;;;;5035419;28;20207;-61
2023/06/20 03:33:57;;;;;;;0.87;0.87;;;;;18.10;95773.00;;;;5035953;28;20221;-61
2023/06/20 03:36:24;;;;;;;1.47;1.37;;;;;18.00;95776.00;;;;5034405;28;20660;-60
2023/06/20 03:38:52;;;;;;;0.90;0.90;;;;;17.90;95772.00;;;;5035500;28;20220;-60
2023/06/20 03:41:19;;;;;;;1.13;1.13;;;;;17.90;95761.00;;;;5035239;28;20197;-61
2023/06/20 03:43:46;;;;;;;1.13;1.13;;;;;17.90;95765.00;;;;5035101;28;20326;-61
2023/06/20 03:46:14;;;;;;;0.70;0.70;;;;;17.90;95775.00;;;;5035179;28;20193;-60
2023/06/20 03:48:41;;;;;;;1.37;1.27;;;;;17.90;95777.00;;;;5035092;28;20189;-61
2023/06/20 03:51:10;;;;;;;0.87;0.87;;;;;18.10;95775.00;;;;5035129;28;20200;-61
2023/06/20 03:53:37;;;;;;;1.73;1.23;;;;;18.10;95774.00;;;;5035121;28;20212;-61
2023/06/20 03:56:05;;;;;;;2.03;1.93;;;;;18.10;95782.00;;;;5034981;28;20291;-61
2023/06/20 03:58:32;;;;;;;1.23;1.23;;;;;18.10;95782.00;;;;5035204;28;20607;-60
2023/06/20 04:00:59;;;;;;;1.60;1.50;;;;;18.20;95781.00;;;;5034808;28;20652;-60
2023/06/20 04:03:28;;;;;;;2.07;1.97;;;;;18.30;95775.00;;;;5034770;28;20208;-60
2023/06/20 04:06:00;;;;;;;0.67;0.67;;;;;18.30;95782.00;;;;5034913;28;20556;-61
2023/06/20 04:08:29;;;;;;;1.57;1.47;;;;;18.40;95784.00;;;;5035607;28;20188;-60
2023/06/20 04:10:57;;;;;;;3.77;1.37;;;;;18.40;95783.00;;;;5035226;28;20192;-61
2023/06/20 04:13:24;;;;;;;0.87;0.87;;;;;18.40;95790.00;;;;5034557;28;20231;-61
2023/06/20 04:15:52;;;;;;;1.37;1.30;;;;;18.50;95757.00;;;;5034931;28;20201;-61
2023/06/20 04:18:19;;;;;;;1.70;1.60;;;;;18.40;95775.00;;;;5034732;28;20227;-58
2023/06/20 04:20:47;;;;;;;0.70;0.70;;;;;18.30;95781.00;;;;5034616;28;20319;-61
2023/06/20 04:23:14;;;;;;;1.07;1.07;;;;;18.30;95777.00;;;;5034490;28;20216;-62
2023/06/20 04:25:43;;;;;;;1.10;1.10;;;;;18.40;95779.00;;;;5034370;28;20192;-61
2023/06/20 04:28:10;;;;;;;1.30;1.30;;;;;18.40;95792.00;;;;5034400;28;20197;-61
2023/06/20 04:30:37;;;;;;;1.57;1.47;;;;;18.50;95777.00;;;;5035328;28;20205;-60
2023/06/20 04:33:05;;;;;;;1.20;1.20;;;;;18.40;95768.00;;;;5034245;28;20226;-61
2023/06/20 04:35:32;;;;;;;1.23;1.20;;;;;18.20;95779.00;;;;5034449;28;20203;-60
2023/06/20 04:38:01;;;;;;;0.73;0.73;;;;;18.40;95783.00;;;;5033873;28;20229;-60
2023/06/20 04:40:29;;;;;;;1.20;1.17;;;;;18.30;95781.00;;;;5034598;28;20192;-60
2023/06/20 04:42:57;;;;;;;1.13;1.03;;;;;18.20;95791.00;;;;5033843;28;20227;-61
2023/06/20 04:45:25;;;;;;;1.03;1.03;;;;;18.20;95786.00;;;;5034653;28;20193;-61
2023/06/20 04:47:52;;;;;;;1.73;1.13;;;;;18.10;95792.00;;;;5034304;28;20564;-61
2023/06/20 04:50:20;;;;;;;1.30;1.30;;;;;18.10;95797.00;;;;5033965;28;20280;-61
2023/06/20 04:52:48;;;;;;;1.30;1.30;;;;;17.90;95801.00;;;;5033872;28;20304;-61
2023/06/20 04:55:15;;;;;;;1.57;1.30;;;;;18.00;95788.00;;;;5033884;28;20201;-61
2023/06/20 04:57:43;;;;;;;1.17;1.17;;;;;18.10;95794.00;;;;5034231;28;20532;-61
2023/06/20 05:00:14;;;;;;;1.57;1.47;;;;;18.40;95799.00;;;;5033657;28;20680;-61
2023/06/20 05:02:42;;;;;;;1.90;1.80;;;;;18.40;95797.00;;;;5033880;28;20212;-61
2023/06/20 05:05:09;;;;;;;1.13;1.13;;;;;18.40;95797.00;;;;5033933;28;20648;-61
2023/06/20 05:07:37;;;;;;;1.03;1.03;;;;;18.60;95798.00;;;;5033706;28;20197;-61
2023/06/20 05:10:06;;;;;;;1.17;1.17;;;;;18.70;95803.00;;;;5033713;28;20277;-60
2023/06/20 05:12:33;;;;;;;1.00;1.00;;;;;18.80;95804.00;;;;5032285;28;20691;-60
2023/06/20 05:15:01;;;;;;;1.77;1.67;;;;;18.60;95803.00;;;;5032346;28;20247;-62
2023/06/20 05:17:29;;;;;;;0.83;0.83;;;;;18.70;95801.00;;;;5033469;28;20200;-60
2023/06/20 05:19:57;;;;;;;1.10;1.10;;;;;18.80;95803.00;;;;5033686;28;20213;-60
2023/06/20 05:22:24;;;;;;;1.27;1.20;;;;;18.80;95798.00;;;;5033623;28;20198;-60
2023/06/20 05:24:51;;;;;;;1.10;1.10;;;;;18.90;95797.00;;;;5033307;28;20259;-60
2023/06/20 05:27:19;;;;;;;1.60;1.50;;;;;19.00;95805.00;;;;5033311;28;20197;-60
2023/06/20 05:29:47;;;;;;;0.90;0.90;;;;;19.30;95805.00;;;;5033322;28;20192;-60
2023/06/20 05:32:15;;;;;;;2.10;1.93;;;;;18.90;95800.00;;;;5033280;28;20192;-60
2023/06/20 05:34:44;;;;;;;0.60;0.60;;;;;19.00;95813.00;;;;5033471;28;20556;-61
2023/06/20 05:37:12;;;;;;;1.27;1.27;;;;;19.00;95811.00;;;;5033403;28;20200;-60
2023/06/20 05:39:39;;;;;;;1.73;1.63;;;;;18.70;95806.00;;;;5033029;28;20224;-60
2023/06/20 05:42:06;;;;;;;1.10;1.07;;;;;18.90;95812.00;;;;5033394;28;20203;-60
2023/06/20 05:44:36;;;;;;;1.23;1.23;;;;;19.00;95799.00;;;;5033078;28;20667;-64
2023/06/20 05:47:04;;;;;;;0.93;0.93;;;;;19.30;95804.00;;;;5033187;28;20192;-60
2023/06/20 05:49:32;;;;;;;0.80;0.80;;;;;19.10;95804.00;;;;5033067;28;20184;-60
2023/06/20 05:52:00;;;;;;;1.20;1.20;;;;;19.10;95797.00;;;;5033419;28;20514;-61
2023/06/20 05:54:28;;;;;;;2.73;1.10;;;;;19.00;95771.00;;;;5032907;28;20221;-61
2023/06/20 05:56:56;;;;;;;1.07;1.07;;;;;19.00;95807.00;;;;5032908;28;20203;-61
2023/06/20 05:59:23;;;;;;;1.27;1.27;;;;;18.80;95802.00;;;;5032845;28;20227;-61
2023/06/20 06:01:51;;;;;;;1.60;1.50;;;;;18.90;95819.00;;;;5032890;28;20221;-61
2023/06/20 06:04:18;;;;;;;17.33;1.60;;;;;19.10;95816.00;;;;5032792;28;20220;-61
2023/06/20 06:06:45;;;;;;;0.83;0.83;;;;;19.00;95811.00;;;;5033065;28;20193;-61
2023/06/20 06:09:14;;;;;;;0.97;0.97;;;;;19.10;95813.00;;;;5032653;28;20192;-61
2023/06/20 06:11:42;;;;;;;0.63;0.63;;;;;19.30;95808.00;;;;5033017;28;20279;-61
2023/06/20 06:14:09;;;;;;;1.80;1.70;;;;;19.50;95820.00;;;;5031421;28;20612;-61
2023/06/20 06:16:37;;;;;;;1.27;1.27;;;;;19.50;95806.00;;;;5032711;28;20193;-61
2023/06/20 06:19:04;;;;;;;1.27;1.27;;;;;19.40;95814.00;;;;5032795;28;20217;-60
2023/06/20 06:21:31;;;;;;;0.97;0.97;;;;;19.60;95817.00;;;;5032841;28;20199;-59
2023/06/20 06:23:59;;;;;;;2.40;2.20;;;;;19.60;95820.00;;;;5032709;28;20208;-60
2023/06/20 06:26:27;;;;;;;0.90;0.90;;;;;19.90;95816.00;;;;5032660;28;20203;-60
2023/06/20 06:28:55;;;;;;;1.30;1.30;;;;;19.80;95816.00;;;;5032551;28;20181;-59
2023/06/20 06:31:26;;;;;;;1.27;1.17;;;;;19.80;95822.00;;;;5032821;28;20279;-59
2023/06/20 06:33:56;;;;;;;0.70;0.70;;;;;20.00;95808.00;;;;5032538;28;20209;-60
2023/06/20 06:36:24;;;;;;;2.87;1.53;;;;;20.00;95815.00;;;;5031281;28;20247;-60
2023/06/20 06:38:53;;;;;;;1.67;1.57;;;;;20.00;95816.00;;;;5032605;28;20212;-61
2023/06/20 06:41:21;;;;;;;1.43;1.37;;;;;20.20;95817.00;;;;5032506;28;20357;-61
2023/06/20 06:43:49;;;;;;;1.73;1.63;;;;;20.40;95814.00;;;;5032212;28;20224;-60
2023/06/20 06:46:17;;;;;;;1.52;1.42;;;;;20.50;95816.00;;;;5032719;28;20260;-61
2023/06/20 06:48:45;;;;;;;1.17;1.17;;;;;20.50;95814.00;;;;5032658;28;20551;-60
2023/06/20 06:51:12;;;;;;;1.00;1.00;;;;;20.90;95812.00;;;;5032568;28;20199;-60
2023/06/20 06:53:40;;;;;;;2.17;2.07;;;;;20.80;95809.00;;;;5032344;28;20222;-60
2023/06/20 06:56:07;;;;;;;3.55;1.58;;;;;21.10;95812.00;;;;5032411;28;20309;-61
2023/06/20 06:58:34;;;;;;;1.98;1.88;;;;;21.30;95806.00;;;;5032539;28;20279;-60
2023/06/20 07:01:03;;;;;;;1.10;1.10;;;;;21.40;95804.00;;;;5035605;28;20562;-60
2023/06/20 07:03:31;;;;;;;1.00;1.00;;;;;21.70;95810.00;;;;5035886;28;20208;-60
2023/06/20 07:05:58;;;;;;;0.77;0.77;;;;;21.90;95811.00;;;;5036151;28;20223;-61
2023/06/20 07:08:26;;;;;;;0.98;0.98;;;;;22.00;95811.00;;;;5036262;28;20645;-60
2023/06/20 07:10:53;;;;;;;1.55;1.45;;;;;22.10;95809.00;;;;5036204;28;20204;-61
2023/06/20 07:13:23;;;;;;;1.67;1.58;;;;;22.00;95807.00;;;;5035783;28;20213;-60
2023/06/20 07:15:50;;;;;;;1.13;1.13;;;;;22.00;95806.00;;;;5035931;28;20203;-61
2023/06/20 07:18:19;;;;;;;1.10;1.10;;;;;22.20;95817.00;;;;5036184;28;20204;-61
2023/06/20 07:20:46;;;;;;;1.35;1.25;;;;;22.20;95811.00;;;;5035884;28;20278;-60
2023/06/20 07:23:13;;;;;;;1.27;1.27;;;;;22.20;95815.00;;;;5035551;28;20212;-61
2023/06/20 07:25:41;;;;;;;1.90;1.80;;;;;22.40;95804.00;;;;5035570;28;20229;-61
2023/06/20 07:28:09;;;;;;;2.78;1.95;;;;;22.70;95807.00;;;;5035896;28;20200;-60
2023/06/20 07:30:36;;;;;;;1.75;1.65;;;;;22.50;95815.00;;;;5035500;28;20196;-60
2023/06/20 07:33:05;;;;;;;1.10;1.10;;;;;22.30;95808.00;;;;5035377;28;20258;-60
2023/06/20 07:35:34;;;;;;;1.15;1.15;;;;;22.60;95819.00;;;;5035670;28;20189;-61
2023/06/20 07:38:02;;;;;;;1.95;1.85;;;;;22.70;95817.00;;;;5035375;28;20672;-60
2023/06/20 07:40:29;;;;;;;1.42;1.33;;;;;23.00;95814.00;;;;5034151;28;20228;-60
2023/06/20 07:42:56;;;;;;;1.77;1.67;;;;;22.90;95819.00;;;;5049675;22;20572;-58
2023/06/20 07:45:24;;;;;;;1.00;1.00;;;;;23.00;95816.00;;;;5055090;28;20239;-58
2023/06/20 07:47:51;;;;;;;1.30;1.20;;;;;22.90;95812.00;;;;5055800;28;20202;-59
2023/06/20 07:50:18;;;;;;;1.05;1.05;;;;;22.60;95811.00;;;;5055428;28;20196;-58
2023/06/20 07:52:47;;;;;;;1.75;1.65;;;;;22.50;95817.00;;;;5055452;28;20185;-59
2023/06/20 07:55:15;;;;;;;1.70;1.52;;;;;22.60;95816.00;;;;5054967;28;20188;-59
2023/06/20 07:57:42;;;;;;;1.65;1.55;;;;;22.70;95823.00;;;;5054883;28;20678;-59
2023/06/20 08:00:11;;;;;;;1.33;1.33;;;;;22.80;95821.00;;;;5055342;28;20212;-59
2023/06/20 08:02:38;;;;;;;1.52;1.42;;;;;22.60;95815.00;;;;5053486;28;20667;-60
2023/06/20 08:05:08;;;;;;;2.00;1.33;;;;;22.60;95817.00;;;;5053493;28;20228;-60
2023/06/20 08:07:36;;;;;;;1.52;1.33;;;;;22.80;95812.00;;;;5054807;28;20222;-59
2023/06/20 08:10:07;;;;;;;1.23;1.23;;;;;23.10;95811.00;;;;5055394;28;20195;-59
2023/06/20 08:12:35;;;;;;;1.05;1.05;;;;;22.80;95804.00;;;;5053467;28;20646;-59
2023/06/20 08:15:02;;;;;;;1.75;1.60;;;;;22.90;95806.00;;;;5054577;28;20204;-60
2023/06/20 08:17:32;;;;;;;1.70;1.60;;;;;23.10;95805.00;;;;5054544;28;20192;-59
2023/06/20 08:20:00;;;;;;;0.98;0.98;;;;;23.00;95816.00;;;;5054938;28;20212;-60
2023/06/20 08:22:27;;;;;;;1.02;1.02;;;;;23.10;95804.00;;;;5054452;28;20200;-58
2023/06/20 08:24:55;;;;;;;0.90;0.90;;;;;23.30;95802.00;;;;5054950;28;20270;-58
2023/06/20 08:27:24;;;;;;;2.63;2.45;;;;;23.50;95802.00;;;;5054357;28;20219;-59
2023/06/20 08:29:51;;;;;;;1.50;1.40;;;;;23.60;95804.00;;;;5055118;28;20678;-58
2023/06/20 08:32:19;;;;;;;1.02;1.02;;;;;23.80;95806.00;;;;5054770;28;20199;-58
2023/06/20 08:34:49;;;;;;;1.65;1.38;;;;;23.80;95813.00;;;;5054125;28;20273;-59
2023/06/20 08:37:17;;;;;;;1.58;1.48;;;;;23.80;95808.00;;;;5052939;28;20273;-58
2023/06/20 08:39:44;;;;;;;1.50;1.40;;;;;23.90;95801.00;;;;5054589;28;20219;-58
2023/06/20 08:42:12;;;;;;;1.00;1.00;;;;;23.90;95796.00;;;;5054569;28;20195;-59
2023/06/20 08:44:41;;;;;;;2.47;1.65;;;;;23.80;95795.00;;;;5053808;28;20712;-58
2023/06/20 08:47:09;;;;;;;1.00;1.00;;;;;24.20;95806.00;;;;5052662;28;20283;-58
2023/06/20 08:49:36;;;;;;;1.70;1.60;;;;;24.40;95787.00;;;;5054202;28;20205;-58
2023/06/20 08:52:09;;;;;;;1.90;1.80;;;;;24.50;95786.00;;;;5054399;28;20196;-58
2023/06/20 08:54:42;;;;;;;1.63;1.52;;;;;24.40;95789.00;;;;5053970;28;20216;-58
2023/06/20 08:57:09;;;;;;;1.38;1.38;;;;;24.50;95785.00;;;;5054336;28;20192;-58
2023/06/20 08:59:37;;;;;;;1.23;1.23;;;;;24.80;95775.00;;;;5053671;28;20216;-59
2023/06/20 09:02:07;;;;;;;1.48;1.35;;;;;25.00;95787.00;;;;5054026;28;20208;-59
2023/06/20 09:04:35;;;;;;;1.55;1.50;;;;;25.00;95783.00;;;;5053553;28;20686;-59
2023/06/20 09:07:02;;;;;;;2.47;2.13;;;;;25.00;95777.00;;;;5053439;28;20196;-59
2023/06/20 09:09:30;;;;;;;4.13;2.47;;;;;25.10;95778.00;;;;5053354;28;20226;-60
2023/06/20 09:11:59;;;;;;;1.90;1.80;;;;;25.10;95770.00;;;;5054174;28;20535;-58
2023/06/20 09:14:27;;;;;;;1.58;1.48;;;;;25.30;95770.00;;;;5053429;28;20269;-58
2023/06/20 09:16:55;;;;;;;0.80;0.80;;;;;25.60;95773.00;;;;5053327;28;20612;-58
2023/06/20 09:19:24;;;;;;;1.55;1.42;;;;;25.30;95768.00;;;;5053498;28;20196;-58
2023/06/20 09:21:52;;;;;;;1.25;1.25;;;;;25.40;95770.00;;;;5053488;28;20200;-58
2023/06/20 09:24:20;;;;;;;3.83;1.73;;;;;25.50;95777.00;;;;5052922;28;20768;-58
2023/06/20 09:26:48;;;;;;;1.95;1.33;;;;;25.60;95766.00;;;;5053557;28;20203;-58
2023/06/20 09:29:17;;;;;;;1.38;1.38;;;;;25.80;95759.00;;;;5053357;28;20192;-58
2023/06/20 09:31:47;;;;;;;1.83;1.73;;;;;26.10;95767.00;;;;5052308;28;20235;-58
2023/06/20 09:34:16;;;;;;;0.90;0.90;;;;;26.20;95769.00;;;;5053554;28;20216;-59
2023/06/20 09:36:45;;;;;;;1.13;1.10;;;;;26.10;95765.00;;;;5053052;28;20192;-58
2023/06/20 09:39:15;;;;;;;1.02;1.02;;;;;26.50;95765.00;;;;5053164;28;20577;-58
2023/06/20 09:41:46;;;;;;;5.30;2.08;;;;;26.60;95763.00;;;;5053807;28;20199;-58
2023/06/20 09:44:14;;;;;;;1.48;1.38;;;;;26.50;95765.00;;;;5052734;28;20236;-58
2023/06/20 09:46:42;;;;;;;6.00;1.08;;;;;26.60;95763.00;;;;5052842;28;20199;-58
2023/06/20 09:49:12;;;;;;;0.80;0.80;;;;;26.30;95769.00;;;;5052873;28;20667;-58
2023/06/20 09:51:46;;;;;;;5.68;1.50;;;;;26.30;95762.00;;;;5053228;28;20184;-58
2023/06/20 09:54:15;;;;;;;1.10;1.10;;;;;26.40;95756.00;;;;5053047;28;20516;-58
2023/06/20 09:56:47;;;;;;;1.98;1.80;;;;;26.70;95765.00;;;;5052719;28;20196;-60
2023/06/20 09:59:16;;;;;;;1.95;1.75;;;;;26.30;95746.00;;;;5053064;28;20180;-58
2023/06/20 10:01:43;;;;;;;2.00;1.90;;;;;26.50;95751.00;;;;5053107;28;20219;-60
2023/06/20 10:04:13;;;;;;;1.70;1.33;;;;;26.60;95738.00;;;;5052616;28;20208;-58
2023/06/20 10:06:41;;;;;;;1.05;1.05;;;;;27.00;95736.00;;;;5052660;28;20210;-57
2023/06/20 10:09:10;;;;;;;1.60;1.50;;;;;27.20;95753.00;;;;5052874;28;20195;-59
2023/06/20 10:11:40;;;;;;;0.88;0.88;;;;;27.00;95739.00;;;;5052653;28;20184;-59
2023/06/20 10:14:09;;;;;;;1.02;1.02;;;;;26.90;95750.00;;;;5051631;28;20243;-59
2023/06/20 10:16:37;;;;;;;1.00;1.00;;;;;27.00;95742.00;;;;5052630;28;20215;-58
2023/06/20 10:19:17;;;;;;;0.95;0.95;;;;;27.40;95751.00;;;;5052572;28;20200;-59
2023/06/20 10:22:02;;;;;;;1.73;1.63;;;;;27.70;95759.00;;;;5052753;28;20238;-59
2023/06/20 10:24:31;;;;;;;1.15;1.13;;;;;27.90;95760.00;;;;5052480;28;20679;-59
2023/06/20 10:27:01;;;;;;;4.50;1.95;;;;;28.00;95765.00;;;;5052514;28;20188;-59
2023/06/20 10:29:29;;;;;;;1.92;1.77;;;;;28.00;95758.00;;;;5051120;28;20196;-61
2023/06/20 10:31:58;;;;;;;3.90;1.80;;;;;28.30;95756.00;;;;5052398;28;20203;-60
2023/06/20 10:34:36;;;;;;;1.13;1.13;;;;;28.40;95747.00;;;;5051995;28;20310;-59
2023/06/20 10:37:14;;;;;;;1.83;1.67;;;;;28.20;95746.00;;;;5056356;28;20209;-59
2023/06/20 10:39:54;;;;;;;1.63;1.52;;;;;28.40;95760.00;;;;5054894;28;20199;-59
2023/06/20 10:42:38;;;;;;;1.50;1.40;;;;;28.60;95751.00;;;;5056465;28;20186;-59
2023/06/20 10:45:26;;;;;;;1.55;1.45;;;;;28.90;95754.00;;;;5055695;28;20196;-59
2023/06/20 10:47:54;;;;;;;1.83;1.05;;;;;29.00;95759.00;;;;5056672;28;20188;-60
2023/06/20 10:50:22;;;;;;;1.33;1.23;;;;;29.00;95752.00;;;;5056007;28;20227;-60
2023/06/20 10:52:50;;;;;;;1.42;1.42;;;;;29.20;95756.00;;;;5057450;28;20572;-62
2023/06/20 10:55:26;;;;;;;1.30;1.20;;;;;29.00;95746.00;;;;5056826;28;20207;-59
2023/06/20 10:57:55;;;;;;;1.42;1.33;;;;;29.20;95750.00;;;;5054667;28;20196;-59
2023/06/20 11:00:24;;;;;;;1.42;1.35;;;;;29.10;95743.00;;;;5055806;28;20208;-60
2023/06/20 11:02:53;;;;;;;1.52;1.42;;;;;29.40;95735.00;;;;5055766;28;20212;-60
2023/06/20 11:05:26;;;;;;;1.52;1.42;;;;;29.10;95736.00;;;;5056264;28;20663;-60
2023/06/20 11:07:58;;;;;;;1.23;1.23;;;;;29.10;95739.00;;;;5055987;28;20263;-60
2023/06/20 11:10:31;;;;;;;2.63;2.22;;;;;28.70;95726.00;;;;5055996;28;20173;-59
2023/06/20 11:13:00;;;;;;;1.50;1.50;;;;;28.50;95718.00;;;;5056054;28;20695;-59
2023/06/20 11:15:29;;;;;;;1.67;1.58;;;;;29.10;95721.00;;;;5056195;28;20716;-60
2023/06/20 11:18:00;;;;;;;1.50;1.40;;;;;29.30;95722.00;;;;5055511;28;20203;-60
2023/06/20 11:20:28;;;;;;;0.88;0.88;;;;;29.10;95719.00;;;;5055702;28;20283;-60
2023/06/20 11:22:57;;;;;;;1.23;1.23;;;;;29.50;95714.00;;;;5055346;28;20207;-59
2023/06/20 11:25:28;;;;;;;2.03;1.80;;;;;29.40;95718.00;;;;5055993;28;20188;-60
2023/06/20 11:28:05;;;;;;;1.88;1.77;;;;;29.40;95732.00;;;;5055599;28;20184;-59
2023/06/20 11:30:33;;;;;;;1.27;1.25;;;;;29.10;95723.00;;;;5055577;28;20257;-60
2023/06/20 11:33:03;;;;;;;1.75;1.33;;;;;28.90;95720.00;;;;5055529;28;20219;-60
2023/06/20 11:35:49;;;;;;;2.08;1.85;;;;;29.20;95727.00;;;;5055692;28;20670;-60
2023/06/20 11:38:20;;;;;;;6.15;1.90;;;;;29.60;95723.00;;;;5055240;28;20588;-60
2023/06/20 11:40:50;;;;;;;1.63;1.52;;;;;29.00;95716.00;;;;5055378;28;20286;-60
2023/06/20 11:43:28;;;;;;;3.65;1.38;;;;;29.10;95727.00;;;;5055064;28;20635;-60
2023/06/20 11:46:02;;;;;;;1.70;1.58;;;;;29.10;95711.00;;;;5055217;28;20543;-60
2023/06/20 11:48:30;;;;;;;1.40;1.30;;;;;29.60;95706.00;;;;5054972;28;20195;-60
2023/06/20 11:50:59;;;;;;;1.75;1.65;;;;;30.30;95701.00;;;;5055200;28;20188;-60
2023/06/20 11:53:29;;;;;;;1.30;1.25;;;;;30.50;95699.00;;;;5053539;28;20270;-60
2023/06/20 11:55:58;;;;;;;2.03;1.90;;;;;30.30;95696.00;;;;5053993;28;20228;-60
2023/06/20 11:58:27;;;;;;;1.73;1.63;;;;;30.40;95691.00;;;;5054811;28;20196;-60
2023/06/20 12:01:10;;;;;;;1.00;1.00;;;;;30.70;95698.00;;;;5054642;28;20219;-60
2023/06/20 12:03:40;;;;;;;0.98;0.98;;;;;30.80;95692.00;;;;5054863;28;20215;-60
2023/06/20 12:06:28;;;;;;;1.48;1.38;;;;;31.00;95687.00;;;;5053723;28;20200;-60
2023/06/20 12:08:57;;;;;;;2.55;1.63;;;;;31.10;95687.00;;;;5054566;28;20196;-60
2023/06/20 12:11:25;;;;;;;1.27;1.27;;;;;31.60;95687.00;;;;5054531;28;20196;-60
2023/06/20 12:13:54;;;;;;;1.35;1.25;;;;;31.40;95683.00;;;;5054525;28;20222;-60
2023/06/20 12:16:22;;;;;;;4.60;1.48;;;;;30.80;95682.00;;;;5055306;28;20563;-60
2023/06/20 12:18:51;;;;;;;1.63;1.52;;;;;30.80;95677.00;;;;5054425;28;20191;-61
2023/06/20 12:21:19;;;;;;;1.20;1.10;;;;;31.10;95669.00;;;;5054326;28;20311;-60
2023/06/20 12:23:46;;;;;;;1.23;1.20;;;;;31.50;95669.00;;;;5054278;28;20208;-60
2023/06/20 12:26:14;;;;;;;1.63;1.52;;;;;31.40;95681.00;;;;5054574;28;20200;-59
2023/06/20 12:28:42;;;;;;;1.77;1.63;;;;;30.40;95671.00;;;;5054272;28;20697;-60